sensor_id;sensor_type;location;lat;lon;timestamp;pressure;altitude;pressure_sealevel;temperature;humidity
15932;BME280;8065;49.520;11.284;2023-11-18T00:00:10;98225.66;;;6.45;73.87
15932;BME280;8065;49.520;11.284;2023-11-18T00:02:44;98234.63;;;6.49;73.74
15932;BME280;8065;49.520;11.284;2023-11-18T00:05:13;98238.72;;;6.70;73.06
15932;BME280;8065;49.520;11.284;2023-11-18T00:07:41;98237.13;;;6.74;72.96
15932;BME280;8065;49.520;11.284;2023-11-18T00:10:10;98234.16;;;6.81;72.82
15932;BME280;8065;49.520;11.284;2023-11-18T00:12:39;98235.38;;;6.94;72.34
15932;BME280;8065;49.520;11.284;2023-11-18T00:15:09;98243.31;;;6.94;71.88
15932;BME280;8065;49.520;11.284;2023-11-18T00:17:37;98252.22;;;6.64;72.24
15932;BME280;8065;49.520;11.284;2023-11-18T00:20:10;98255.34;;;6.11;73.08
15932;BME280;8065;49.520;11.284;2023-11-18T00:22:39;98259.56;;;6.17;73.48
15932;BME280;8065;49.520;11.284;2023-11-18T00:25:08;98267.47;;;6.17;72.96
15932;BME280;8065;49.520;11.284;2023-11-18T00:27:38;98262.69;;;6.24;72.98
15932;BME280;8065;49.520;11.284;2023-11-18T00:30:07;98262.69;;;6.24;72.81
15932;BME280;8065;49.520;11.284;2023-11-18T00:32:36;98269.06;;;6.18;72.83
15932;BME280;8065;49.520;11.284;2023-11-18T00:35:08;98260.03;;;6.30;72.87
15932;BME280;8065;49.520;11.284;2023-11-18T00:37:37;98261.06;;;6.39;72.17
15932;BME280;8065;49.520;11.284;2023-11-18T00:40:07;98269.00;;;6.29;72.54
15932;BME280;8065;49.520;11.284;2023-11-18T00:42:36;98264.31;;;6.10;73.05
15932;BME280;8065;49.520;11.284;2023-11-18T00:45:06;98263.59;;;6.00;73.07
15932;BME280;8065;49.520;11.284;2023-11-18T00:47:34;98259.03;;;6.15;72.96
15932;BME280;8065;49.520;11.284;2023-11-18T00:50:03;98261.22;;;6.03;72.77
15932;BME280;8065;49.520;11.284;2023-11-18T00:52:36;98261.25;;;5.93;72.50
15932;BME280;8065;49.520;11.284;2023-11-18T00:55:07;98266.75;;;5.97;72.79
15932;BME280;8065;49.520;11.284;2023-11-18T00:57:36;98269.66;;;6.00;72.69
15932;BME280;8065;49.520;11.284;2023-11-18T01:00:07;98264.41;;;5.95;72.37
15932;BME280;8065;49.520;11.284;2023-11-18T01:02:39;98272.31;;;5.80;72.82
15932;BME280;8065;49.520;11.284;2023-11-18T01:05:07;98266.78;;;5.76;73.70
15932;BME280;8065;49.520;11.284;2023-11-18T01:07:39;98263.38;;;5.60;73.42
15932;BME280;8065;49.520;11.284;2023-11-18T01:10:09;98268.38;;;5.62;73.86
15932;BME280;8065;49.520;11.284;2023-11-18T01:12:39;98263.38;;;5.40;73.65
15932;BME280;8065;49.520;11.284;2023-11-18T01:15:08;98270.22;;;5.51;74.10
15932;BME280;8065;49.520;11.284;2023-11-18T01:17:38;98261.78;;;5.54;73.08
15932;BME280;8065;49.520;11.284;2023-11-18T01:20:07;98270.75;;;5.43;73.73
15932;BME280;8065;49.520;11.284;2023-11-18T01:22:39;98274.44;;;5.52;73.47
15932;BME280;8065;49.520;11.284;2023-11-18T01:25:10;98273.91;;;5.50;73.58
15932;BME280;8065;49.520;11.284;2023-11-18T01:27:39;98272.34;;;5.54;73.59
15932;BME280;8065;49.520;11.284;2023-11-18T01:30:08;98272.31;;;5.70;73.10
15932;BME280;8065;49.520;11.284;2023-11-18T01:32:37;98272.59;;;5.53;73.02
15932;BME280;8065;49.520;11.284;2023-11-18T01:35:07;98273.91;;;5.25;73.84
15932;BME280;8065;49.520;11.284;2023-11-18T01:37:38;98278.41;;;5.30;74.16
15932;BME280;8065;49.520;11.284;2023-11-18T01:40:08;98272.91;;;5.16;74.64
15932;BME280;8065;49.520;11.284;2023-11-18T01:42:37;98282.63;;;5.25;73.95
15932;BME280;8065;49.520;11.284;2023-11-18T01:45:06;98277.63;;;5.19;74.13
15932;BME280;8065;49.520;11.284;2023-11-18T01:47:37;98284.19;;;5.26;74.04
15932;BME280;8065;49.520;11.284;2023-11-18T01:50:07;98288.69;;;5.46;73.31
15932;BME280;8065;49.520;11.284;2023-11-18T01:52:39;98277.34;;;5.36;73.11
15932;BME280;8065;49.520;11.284;2023-11-18T01:55:14;98280.78;;;5.11;74.13
15932;BME280;8065;49.520;11.284;2023-11-18T01:57:42;98286.84;;;5.11;74.33
15932;BME280;8065;49.520;11.284;2023-11-18T02:00:12;98290.78;;;5.04;74.52
15932;BME280;8065;49.520;11.284;2023-11-18T02:02:42;98285.53;;;5.19;74.25
15932;BME280;8065;49.520;11.284;2023-11-18T02:05:11;98285.00;;;5.27;74.50
15932;BME280;8065;49.520;11.284;2023-11-18T02:07:42;98287.63;;;5.42;73.83
15932;BME280;8065;49.520;11.284;2023-11-18T02:10:12;98282.88;;;5.39;73.89
15932;BME280;8065;49.520;11.284;2023-11-18T02:12:44;98286.56;;;5.38;73.58
15932;BME280;8065;49.520;11.284;2023-11-18T02:15:14;98290.25;;;5.27;73.75
15932;BME280;8065;49.520;11.284;2023-11-18T02:17:45;98296.88;;;5.14;73.96
15932;BME280;8065;49.520;11.284;2023-11-18T02:20:14;98299.22;;;5.11;74.65
15932;BME280;8065;49.520;11.284;2023-11-18T02:22:48;98294.47;;;5.28;73.73
15932;BME280;8065;49.520;11.284;2023-11-18T02:25:17;98300.28;;;5.40;73.35
15932;BME280;8065;49.520;11.284;2023-11-18T02:27:49;98298.16;;;5.42;73.15
15932;BME280;8065;49.520;11.284;2023-11-18T02:30:17;98306.06;;;5.32;72.88
15932;BME280;8065;49.520;11.284;2023-11-18T02:32:55;98306.59;;;5.24;73.11
15932;BME280;8065;49.520;11.284;2023-11-18T02:35:30;98304.22;;;5.12;73.83
15932;BME280;8065;49.520;11.284;2023-11-18T02:38:00;98305.28;;;5.06;73.90
15932;BME280;8065;49.520;11.284;2023-11-18T02:40:32;98301.31;;;4.93;74.17
15932;BME280;8065;49.520;11.284;2023-11-18T02:43:04;98309.97;;;4.89;73.48
15932;BME280;8065;49.520;11.284;2023-11-18T02:45:35;98302.88;;;4.84;73.52
15932;BME280;8065;49.520;11.284;2023-11-18T02:48:05;98301.31;;;4.93;73.79
15932;BME280;8065;49.520;11.284;2023-11-18T02:50:34;98300.25;;;5.00;73.13
15932;BME280;8065;49.520;11.284;2023-11-18T02:53:03;98295.75;;;4.85;73.43
15932;BME280;8065;49.520;11.284;2023-11-18T02:55:29;98298.13;;;4.91;73.07
15932;BME280;8065;49.520;11.284;2023-11-18T02:57:57;98307.56;;;4.77;73.74
15932;BME280;8065;49.520;11.284;2023-11-18T03:00:28;98303.91;;;4.78;73.97
15932;BME280;8065;49.520;11.284;2023-11-18T03:02:56;98314.69;;;4.82;73.88
15932;BME280;8065;49.520;11.284;2023-11-18T03:05:25;98319.72;;;4.83;74.39
15932;BME280;8065;49.520;11.284;2023-11-18T03:07:53;98319.44;;;4.85;74.15
15932;BME280;8065;49.520;11.284;2023-11-18T03:10:23;98322.09;;;4.90;74.41
15932;BME280;8065;49.520;11.284;2023-11-18T03:12:53;98317.63;;;4.90;74.45
15932;BME280;8065;49.520;11.284;2023-11-18T03:15:22;98323.41;;;4.87;74.42
15932;BME280;8065;49.520;11.284;2023-11-18T03:17:53;98317.53;;;4.65;75.01
15932;BME280;8065;49.520;11.284;2023-11-18T03:20:22;98323.38;;;4.77;75.40
15932;BME280;8065;49.520;11.284;2023-11-18T03:22:51;98322.38;;;4.93;74.28
15932;BME280;8065;49.520;11.284;2023-11-18T03:25:20;98323.38;;;4.77;74.80
15932;BME280;8065;49.520;11.284;2023-11-18T03:27:49;98324.94;;;4.73;74.58
15932;BME280;8065;49.520;11.284;2023-11-18T03:30:20;98332.75;;;4.53;75.87
15932;BME280;8065;49.520;11.284;2023-11-18T03:32:48;98329.66;;;4.71;74.66
15932;BME280;8065;49.520;11.284;2023-11-18T03:35:19;98332.22;;;4.51;75.75
15932;BME280;8065;49.520;11.284;2023-11-18T03:37:49;98327.97;;;4.40;75.78
15932;BME280;8065;49.520;11.284;2023-11-18T03:40:18;98328.22;;;4.38;75.35
15932;BME280;8065;49.520;11.284;2023-11-18T03:42:46;98325.91;;;4.52;75.35
15932;BME280;8065;49.520;11.284;2023-11-18T03:45:14;98335.94;;;4.55;75.48
15932;BME280;8065;49.520;11.284;2023-11-18T03:47:43;98331.78;;;4.74;74.96
15932;BME280;8065;49.520;11.284;2023-11-18T03:50:12;98331.28;;;4.77;74.56
15932;BME280;8065;49.520;11.284;2023-11-18T03:52:43;98334.09;;;4.60;74.27
15932;BME280;8065;49.520;11.284;2023-11-18T03:55:12;98336.47;;;4.62;74.52
15932;BME280;8065;49.520;11.284;2023-11-18T03:57:40;98341.75;;;4.62;74.13
15932;BME280;8065;49.520;11.284;2023-11-18T04:00:11;98335.44;;;4.68;74.03
15932;BME280;8065;49.520;11.284;2023-11-18T04:02:43;98334.63;;;4.57;73.65
15932;BME280;8065;49.520;11.284;2023-11-18T04:05:11;98336.19;;;4.58;74.24
15932;BME280;8065;49.520;11.284;2023-11-18T04:07:39;98337.06;;;4.74;73.64
15932;BME280;8065;49.520;11.284;2023-11-18T04:10:11;98342.84;;;4.76;73.70
15932;BME280;8065;49.520;11.284;2023-11-18T04:12:40;98337.09;;;4.89;73.45
15932;BME280;8065;49.520;11.284;2023-11-18T04:15:12;98340.00;;;4.88;73.30
15932;BME280;8065;49.520;11.284;2023-11-18T04:17:40;98339.50;;;5.01;73.16
15932;BME280;8065;49.520;11.284;2023-11-18T04:20:10;98337.34;;;4.83;72.94
15932;BME280;8065;49.520;11.284;2023-11-18T04:22:41;98337.59;;;4.76;73.62
15932;BME280;8065;49.520;11.284;2023-11-18T04:25:12;98339.41;;;4.71;73.46
15932;BME280;8065;49.520;11.284;2023-11-18T04:27:41;98346.53;;;4.75;72.97
15932;BME280;8065;49.520;11.284;2023-11-18T04:30:10;98348.06;;;4.66;72.95
15932;BME280;8065;49.520;11.284;2023-11-18T04:32:38;98341.19;;;4.55;73.37
15932;BME280;8065;49.520;11.284;2023-11-18T04:35:08;98351.94;;;4.48;72.97
15932;BME280;8065;49.520;11.284;2023-11-18T04:37:37;98344.31;;;4.47;73.36
15932;BME280;8065;49.520;11.284;2023-11-18T04:40:08;98352.75;;;4.54;73.24
15932;BME280;8065;49.520;11.284;2023-11-18T04:42:41;98355.66;;;4.57;73.17
15932;BME280;8065;49.520;11.284;2023-11-18T04:45:09;98354.63;;;4.58;73.14
15932;BME280;8065;49.520;11.284;2023-11-18T04:47:39;98357.03;;;4.65;73.13
15932;BME280;8065;49.520;11.284;2023-11-18T04:50:10;98350.41;;;4.57;73.34
15932;BME280;8065;49.520;11.284;2023-11-18T04:52:39;98359.13;;;4.63;73.19
15932;BME280;8065;49.520;11.284;2023-11-18T04:55:08;98347.00;;;4.62;73.54
15932;BME280;8065;49.520;11.284;2023-11-18T04:57:41;98345.44;;;4.66;73.22
15932;BME280;8065;49.520;11.284;2023-11-18T05:00:11;98341.19;;;4.55;73.38
15932;BME280;8065;49.520;11.284;2023-11-18T05:02:42;98334.63;;;4.57;73.59
15932;BME280;8065;49.520;11.284;2023-11-18T05:05:12;98336.19;;;4.53;73.61
15932;BME280;8065;49.520;11.284;2023-11-18T05:07:41;98339.56;;;4.44;73.99
15932;BME280;8065;49.520;11.284;2023-11-18T05:10:10;98332.69;;;4.33;74.50
15932;BME280;8065;49.520;11.284;2023-11-18T05:12:41;98325.34;;;4.45;73.74
15932;BME280;8065;49.520;11.284;2023-11-18T05:15:09;98320.81;;;4.25;73.66
15932;BME280;8065;49.520;11.284;2023-11-18T05:17:38;98326.34;;;4.28;74.28
15932;BME280;8065;49.520;11.284;2023-11-18T05:20:06;98318.47;;;4.34;74.26
15932;BME280;8065;49.520;11.284;2023-11-18T05:22:36;98317.94;;;4.26;73.79
15932;BME280;8065;49.520;11.284;2023-11-18T05:25:05;98325.81;;;4.26;74.54
15932;BME280;8065;49.520;11.284;2023-11-18T05:27:35;98331.63;;;4.28;74.38
15932;BME280;8065;49.520;11.284;2023-11-18T05:30:09;98327.16;;;4.39;73.96
15932;BME280;8065;49.520;11.284;2023-11-18T05:32:37;98322.16;;;4.33;73.88
15932;BME280;8065;49.520;11.284;2023-11-18T05:35:06;98326.34;;;4.28;73.76
15932;BME280;8065;49.520;11.284;2023-11-18T05:37:37;98334.69;;;4.15;74.04
15932;BME280;8065;49.520;11.284;2023-11-18T05:40:07;98334.16;;;4.13;74.23
15932;BME280;8065;49.520;11.284;2023-11-18T05:42:37;98344.13;;;4.06;74.50
15932;BME280;8065;49.520;11.284;2023-11-18T05:45:10;98344.69;;;4.13;74.04
15932;BME280;8065;49.520;11.284;2023-11-18T05:47:52;98346.84;;;4.21;74.20
15932;BME280;8065;49.520;11.284;2023-11-18T05:50:21;98348.97;;;4.24;73.86
15932;BME280;8065;49.520;11.284;2023-11-18T05:52:50;98350.56;;;4.31;73.41
15932;BME280;8065;49.520;11.284;2023-11-18T05:55:18;98346.31;;;4.24;73.36
15932;BME280;8065;49.520;11.284;2023-11-18T05:57:46;98354.00;;;4.36;73.06
15932;BME280;8065;49.520;11.284;2023-11-18T06:00:17;98356.38;;;4.38;72.37
15932;BME280;8065;49.520;11.284;2023-11-18T06:02:46;98347.41;;;4.34;73.01
15932;BME280;8065;49.520;11.284;2023-11-18T06:05:15;98348.47;;;4.33;73.30
15932;BME280;8065;49.520;11.284;2023-11-18T06:07:43;98345.84;;;4.38;73.83
15932;BME280;8065;49.520;11.284;2023-11-18T06:10:12;98343.97;;;4.28;74.65
15932;BME280;8065;49.520;11.284;2023-11-18T06:12:41;98346.91;;;4.42;74.21
15932;BME280;8065;49.520;11.284;2023-11-18T06:15:09;98349.00;;;4.40;74.32
15932;BME280;8065;49.520;11.284;2023-11-18T06:17:43;98354.84;;;4.47;73.79
15932;BME280;8065;49.520;11.284;2023-11-18T06:20:12;98350.91;;;4.54;74.20
15932;BME280;8065;49.520;11.284;2023-11-18T06:22:42;98358.91;;;4.75;73.70
15932;BME280;8065;49.520;11.284;2023-11-18T06:25:10;98360.22;;;4.77;73.42
15932;BME280;8065;49.520;11.284;2023-11-18T06:27:38;98359.69;;;4.70;73.79
15932;BME280;8065;49.520;11.284;2023-11-18T06:30:12;98373.13;;;4.74;73.61
15932;BME280;8065;49.520;11.284;2023-11-18T06:32:43;98365.44;;;4.67;74.28
15932;BME280;8065;49.520;11.284;2023-11-18T06:35:12;98372.84;;;4.75;74.09
15932;BME280;8065;49.520;11.284;2023-11-18T06:37:41;98364.09;;;4.59;74.98
15932;BME280;8065;49.520;11.284;2023-11-18T06:40:10;98361.13;;;4.41;75.97
15932;BME280;8065;49.520;11.284;2023-11-18T06:42:42;98367.44;;;4.40;76.45
15932;BME280;8065;49.520;11.284;2023-11-18T06:45:12;98371.63;;;4.41;76.49
15932;BME280;8065;49.520;11.284;2023-11-18T06:47:43;98370.63;;;4.47;76.25
15932;BME280;8065;49.520;11.284;2023-11-18T06:50:11;98374.84;;;4.48;76.53
15932;BME280;8065;49.520;11.284;2023-11-18T06:52:41;98372.72;;;4.45;77.03
15932;BME280;8065;49.520;11.284;2023-11-18T06:55:10;98378.53;;;4.52;76.27
15932;BME280;8065;49.520;11.284;2023-11-18T06:57:39;98376.38;;;4.39;77.81
15932;BME280;8065;49.520;11.284;2023-11-18T07:00:09;98366.72;;;4.54;77.54
15932;BME280;8065;49.520;11.284;2023-11-18T07:02:39;98367.47;;;4.50;77.62
15932;BME280;8065;49.520;11.284;2023-11-18T07:05:10;98371.63;;;4.31;78.33
15932;BME280;8065;49.520;11.284;2023-11-18T07:07:40;98369.03;;;4.46;78.08
15932;BME280;8065;49.520;11.284;2023-11-18T07:10:08;98368.50;;;4.44;77.35
15932;BME280;8065;49.520;11.284;2023-11-18T07:12:38;98379.75;;;4.29;78.97
15932;BME280;8065;49.520;11.284;2023-11-18T07:15:07;98382.94;;;4.31;78.82
15932;BME280;8065;49.520;11.284;2023-11-18T07:17:36;98390.44;;;4.12;79.62
15932;BME280;8065;49.520;11.284;2023-11-18T07:20:05;98386.81;;;4.23;79.32
15932;BME280;8065;49.520;11.284;2023-11-18T07:22:39;98390.44;;;4.12;80.16
15932;BME280;8065;49.520;11.284;2023-11-18T07:25:08;98393.31;;;4.11;80.50
15932;BME280;8065;49.520;11.284;2023-11-18T07:27:36;98400.03;;;4.39;79.74
15932;BME280;8065;49.520;11.284;2023-11-18T07:30:06;98397.31;;;4.71;79.36
15932;BME280;8065;49.520;11.284;2023-11-18T07:32:35;98403.28;;;4.51;78.45
15932;BME280;8065;49.520;11.284;2023-11-18T07:35:06;98401.72;;;4.55;78.88
15932;BME280;8065;49.520;11.284;2023-11-18T07:37:35;98397.56;;;4.69;79.04
15932;BME280;8065;49.520;11.284;2023-11-18T07:40:08;98391.88;;;4.87;79.00
15932;BME280;8065;49.520;11.284;2023-11-18T07:42:37;98390.88;;;5.04;79.04
15932;BME280;8065;49.520;11.284;2023-11-18T07:45:06;98392.44;;;5.05;78.92
15932;BME280;8065;49.520;11.284;2023-11-18T07:47:42;98401.41;;;5.04;79.05
15932;BME280;8065;49.520;11.284;2023-11-18T07:50:11;98395.94;;;5.41;77.83
15932;BME280;8065;49.520;11.284;2023-11-18T07:52:41;98407.59;;;5.85;77.21
15932;BME280;8065;49.520;11.284;2023-11-18T07:55:12;98393.59;;;5.70;77.08
15932;BME280;8065;49.520;11.284;2023-11-18T07:57:41;98393.63;;;6.00;76.82
15932;BME280;8065;49.520;11.284;2023-11-18T08:00:10;98393.34;;;6.12;76.17
15932;BME280;8065;49.520;11.284;2023-11-18T08:02:40;98398.28;;;6.49;74.87
15932;BME280;8065;49.520;11.284;2023-11-18T08:05:09;98407.78;;;6.60;74.62
15932;BME280;8065;49.520;11.284;2023-11-18T08:07:40;98401.44;;;6.61;73.99
15932;BME280;8065;49.520;11.284;2023-11-18T08:10:11;98407.75;;;6.70;73.90
15932;BME280;8065;49.520;11.284;2023-11-18T08:12:44;98398.06;;;6.20;74.22
15932;BME280;8065;49.520;11.284;2023-11-18T08:15:13;98402.53;;;6.40;74.46
15932;BME280;8065;49.520;11.284;2023-11-18T08:17:41;98408.03;;;6.64;73.95
15932;BME280;8065;49.520;11.284;2023-11-18T08:20:10;98405.66;;;6.57;74.71
15932;BME280;8065;49.520;11.284;2023-11-18T08:22:40;98408.59;;;6.40;75.64
15932;BME280;8065;49.520;11.284;2023-11-18T08:25:12;98416.28;;;6.32;75.03
15932;BME280;8065;49.520;11.284;2023-11-18T08:27:42;98400.44;;;6.32;75.41
15932;BME280;8065;49.520;11.284;2023-11-18T08:30:12;98403.88;;;6.17;75.05
15932;BME280;8065;49.520;11.284;2023-11-18T08:32:44;98398.34;;;6.13;76.04
15932;BME280;8065;49.520;11.284;2023-11-18T08:35:13;98399.41;;;6.12;76.12
15932;BME280;8065;49.520;11.284;2023-11-18T08:37:42;98403.13;;;5.96;77.21
15932;BME280;8065;49.520;11.284;2023-11-18T08:40:14;98403.88;;;6.27;76.27
15932;BME280;8065;49.520;11.284;2023-11-18T08:42:48;98412.03;;;6.36;76.04
15932;BME280;8065;49.520;11.284;2023-11-18T08:45:18;98402.28;;;6.36;75.84
15932;BME280;8065;49.520;11.284;2023-11-18T08:47:47;98408.78;;;6.74;74.89
15932;BME280;8065;49.520;11.284;2023-11-18T08:50:18;98415.06;;;6.88;75.07
15932;BME280;8065;49.520;11.284;2023-11-18T08:52:49;98411.38;;;6.84;74.72
15932;BME280;8065;49.520;11.284;2023-11-18T08:55:27;98416.19;;;6.67;76.31
15932;BME280;8065;49.520;11.284;2023-11-18T08:58:04;98414.31;;;6.78;75.66
15932;BME280;8065;49.520;11.284;2023-11-18T09:00:41;98413.41;;;6.98;75.12
15932;BME280;8065;49.520;11.284;2023-11-18T09:03:22;98411.66;;;6.83;75.40
15932;BME280;8065;49.520;11.284;2023-11-18T09:05:54;98426.34;;;7.04;74.70
15932;BME280;8065;49.520;11.284;2023-11-18T09:08:30;98424.75;;;7.03;75.40
15932;BME280;8065;49.520;11.284;2023-11-18T09:11:05;98424.00;;;6.98;74.98
15932;BME280;8065;49.520;11.284;2023-11-18T09:13:34;98420.94;;;6.75;75.61
15932;BME280;8065;49.520;11.284;2023-11-18T09:16:04;98413.25;;;6.84;76.01
15932;BME280;8065;49.520;11.284;2023-11-18T09:18:34;98403.47;;;7.34;74.47
15932;BME280;8065;49.520;11.284;2023-11-18T09:21:05;98415.84;;;7.43;74.60
15932;BME280;8065;49.520;11.284;2023-11-18T09:23:40;98415.59;;;7.40;74.98
15932;BME280;8065;49.520;11.284;2023-11-18T09:26:11;98414.81;;;7.39;74.21
15932;BME280;8065;49.520;11.284;2023-11-18T09:28:40;98414.88;;;7.24;75.40
15932;BME280;8065;49.520;11.284;2023-11-18T09:31:09;98397.84;;;7.45;74.82
15932;BME280;8065;49.520;11.284;2023-11-18T09:33:39;98396.13;;;7.20;75.15
15932;BME280;8065;49.520;11.284;2023-11-18T09:36:11;98391.75;;;7.01;76.02
15932;BME280;8065;49.520;11.284;2023-11-18T09:38:41;98396.69;;;7.17;76.07
15932;BME280;8065;49.520;11.284;2023-11-18T09:41:14;98395.25;;;7.40;75.68
15932;BME280;8065;49.520;11.284;2023-11-18T09:43:45;98390.53;;;7.32;76.01
15932;BME280;8065;49.520;11.284;2023-11-18T09:46:15;98395.06;;;7.27;76.01
15932;BME280;8065;49.520;11.284;2023-11-18T09:48:51;98392.97;;;7.63;75.18
15932;BME280;8065;49.520;11.284;2023-11-18T09:51:26;98383.56;;;7.46;75.55
15932;BME280;8065;49.520;11.284;2023-11-18T09:53:59;98384.78;;;7.64;76.20
15932;BME280;8065;49.520;11.284;2023-11-18T09:56:40;98383.78;;;7.84;75.55
15932;BME280;8065;49.520;11.284;2023-11-18T09:59:14;98387.50;;;7.83;75.58
15932;BME280;8065;49.520;11.284;2023-11-18T10:01:48;98376.75;;;8.03;75.14
15932;BME280;8065;49.520;11.284;2023-11-18T10:04:19;98383.06;;;8.07;75.24
15932;BME280;8065;49.520;11.284;2023-11-18T10:06:48;98390.81;;;8.33;75.25
15932;BME280;8065;49.520;11.284;2023-11-18T10:09:19;98386.56;;;8.32;74.91
15932;BME280;8065;49.520;11.284;2023-11-18T10:11:56;98385.03;;;8.26;75.59
15932;BME280;8065;49.520;11.284;2023-11-18T10:14:30;98386.13;;;8.72;74.60
15932;BME280;8065;49.520;11.284;2023-11-18T10:16:58;98372.09;;;8.72;74.14
15932;BME280;8065;49.520;11.284;2023-11-18T10:19:51;98375.47;;;8.77;74.18
15932;BME280;8065;49.520;11.284;2023-11-18T10:22:25;98364.38;;;8.94;74.40
15932;BME280;8065;49.520;11.284;2023-11-18T10:24:55;98358.03;;;9.14;73.70
15932;BME280;8065;49.520;11.284;2023-11-18T10:27:29;98374.25;;;9.31;73.67
15932;BME280;8065;49.520;11.284;2023-11-18T10:30:02;98373.16;;;9.51;73.45
15932;BME280;8065;49.520;11.284;2023-11-18T10:32:32;98365.13;;;9.37;73.83
15932;BME280;8065;49.520;11.284;2023-11-18T10:35:01;98367.34;;;9.49;73.83
15932;BME280;8065;49.520;11.284;2023-11-18T10:37:32;98372.28;;;9.88;73.13
15932;BME280;8065;49.520;11.284;2023-11-18T10:40:08;98360.38;;;10.18;72.77
15932;BME280;8065;49.520;11.284;2023-11-18T10:42:41;98364.06;;;10.03;73.02
15932;BME280;8065;49.520;11.284;2023-11-18T10:45:23;98370.84;;;10.69;72.18
15932;BME280;8065;49.520;11.284;2023-11-18T10:47:52;98368.59;;;11.26;70.94
15932;BME280;8065;49.520;11.284;2023-11-18T10:50:22;98369.81;;;11.78;69.58
15932;BME280;8065;49.520;11.284;2023-11-18T10:52:57;98363.00;;;12.26;68.34
15932;BME280;8065;49.520;11.284;2023-11-18T10:55:34;98370.78;;;12.44;66.81
15932;BME280;8065;49.520;11.284;2023-11-18T10:58:06;98360.63;;;12.55;66.72
15932;BME280;8065;49.520;11.284;2023-11-18T11:00:45;98367.59;;;12.73;66.08
15932;BME280;8065;49.520;11.284;2023-11-18T11:03:14;98370.28;;;12.82;65.98
15932;BME280;8065;49.520;11.284;2023-11-18T11:05:43;98372.09;;;12.64;66.45
15932;BME280;8065;49.520;11.284;2023-11-18T11:08:14;98359.34;;;12.53;65.95
15932;BME280;8065;49.520;11.284;2023-11-18T11:10:42;98354.47;;;12.46;67.90
15932;BME280;8065;49.520;11.284;2023-11-18T11:13:16;98346.41;;;12.29;68.24
15932;BME280;8065;49.520;11.284;2023-11-18T11:15:47;98352.16;;;12.53;68.05
15932;BME280;8065;49.520;11.284;2023-11-18T11:18:20;98348.03;;;13.12;67.13
15932;BME280;8065;49.520;11.284;2023-11-18T11:20:57;98346.50;;;13.63;65.10
15932;BME280;8065;49.520;11.284;2023-11-18T11:23:35;98345.69;;;13.80;65.11
15932;BME280;8065;49.520;11.284;2023-11-18T11:26:16;98348.06;;;13.82;65.09
15932;BME280;8065;49.520;11.284;2023-11-18T11:28:55;98354.97;;;13.74;64.81
15932;BME280;8065;49.520;11.284;2023-11-18T11:31:31;98353.88;;;13.58;65.21
15932;BME280;8065;49.520;11.284;2023-11-18T11:34:04;98348.84;;;13.65;65.30
15932;BME280;8065;49.520;11.284;2023-11-18T11:36:37;98344.13;;;13.79;64.86
15932;BME280;8065;49.520;11.284;2023-11-18T11:39:08;98347.59;;;13.80;65.00
15932;BME280;8065;49.520;11.284;2023-11-18T11:41:44;98338.84;;;14.08;63.86
15932;BME280;8065;49.520;11.284;2023-11-18T11:44:19;98337.56;;;14.15;63.73
15932;BME280;8065;49.520;11.284;2023-11-18T11:46:54;98338.09;;;13.99;64.07
15932;BME280;8065;49.520;11.284;2023-11-18T11:49:26;98330.19;;;14.11;63.60
15932;BME280;8065;49.520;11.284;2023-11-18T11:52:02;98325.03;;;14.06;64.15
15932;BME280;8065;49.520;11.284;2023-11-18T11:54:38;98317.94;;;14.10;63.85
15932;BME280;8065;49.520;11.284;2023-11-18T11:57:10;98315.84;;;14.25;63.63
15932;BME280;8065;49.520;11.284;2023-11-18T11:59:57;98326.03;;;13.85;63.27
15932;BME280;8065;49.520;11.284;2023-11-18T12:02:40;98310.84;;;13.51;64.24
15932;BME280;8065;49.520;11.284;2023-11-18T12:05:17;98303.25;;;12.66;67.25
15932;BME280;8065;49.520;11.284;2023-11-18T12:07:51;98297.31;;;13.12;66.29
15932;BME280;8065;49.520;11.284;2023-11-18T12:10:20;98299.88;;;13.43;65.73
15932;BME280;8065;49.520;11.284;2023-11-18T12:12:50;98293.91;;;13.47;65.78
15932;BME280;8065;49.520;11.284;2023-11-18T12:15:52;98283.34;;;12.81;67.80
15932;BME280;8065;49.520;11.284;2023-11-18T12:18:29;98267.84;;;12.92;67.77
15932;BME280;8065;49.520;11.284;2023-11-18T12:20:59;98251.84;;;12.92;67.88
15932;BME280;8065;49.520;11.284;2023-11-18T12:23:29;98250.88;;;13.05;67.67
15932;BME280;8065;49.520;11.284;2023-11-18T12:25:59;98240.66;;;13.16;67.43
15932;BME280;8065;49.520;11.284;2023-11-18T12:28:30;98237.72;;;13.17;67.75
15932;BME280;8065;49.520;11.284;2023-11-18T12:31:03;98229.72;;;13.00;67.56
15932;BME280;8065;49.520;11.284;2023-11-18T12:34:00;98219.97;;;12.87;68.60
15932;BME280;8065;49.520;11.284;2023-11-18T12:37:11;98203.50;;;12.67;68.14
15932;BME280;8065;49.520;11.284;2023-11-18T12:40:12;98218.19;;;12.39;69.12
15932;BME280;8065;49.520;11.284;2023-11-18T12:43:00;98211.03;;;12.65;68.45
15932;BME280;8065;49.520;11.284;2023-11-18T12:45:50;98190.94;;;12.42;69.49
15932;BME280;8065;49.520;11.284;2023-11-18T12:48:30;98195.19;;;12.60;69.10
15932;BME280;8065;49.520;11.284;2023-11-18T12:51:02;98187.03;;;12.65;69.05
15932;BME280;8065;49.520;11.284;2023-11-18T12:53:35;98193.00;;;12.79;68.97
15932;BME280;8065;49.520;11.284;2023-11-18T12:56:04;98185.09;;;13.00;68.13
15932;BME280;8065;49.520;11.284;2023-11-18T12:58:33;98191.56;;;12.91;67.99
15932;BME280;8065;49.520;11.284;2023-11-18T13:01:03;98191.25;;;12.66;68.95
15932;BME280;8065;49.520;11.284;2023-11-18T13:03:34;98192.22;;;12.70;69.05
15932;BME280;8065;49.520;11.284;2023-11-18T13:06:03;98199.41;;;12.70;68.96
15932;BME280;8065;49.520;11.284;2023-11-18T13:08:32;98184.38;;;12.83;69.01
15932;BME280;8065;49.520;11.284;2023-11-18T13:11:00;98195.81;;;12.66;69.03
15932;BME280;8065;49.520;11.284;2023-11-18T13:13:30;98186.22;;;12.39;69.57
15932;BME280;8065;49.520;11.284;2023-11-18T13:15:59;98188.13;;;12.64;69.39
15932;BME280;8065;49.520;11.284;2023-11-18T13:18:43;98190.16;;;12.85;68.78
15932;BME280;8065;49.520;11.284;2023-11-18T13:21:15;98188.75;;;12.96;68.94
15932;BME280;8065;49.520;11.284;2023-11-18T13:23:47;98194.72;;;12.75;69.31
15932;BME280;8065;49.520;11.284;2023-11-18T13:26:19;98189.84;;;12.77;69.15
15932;BME280;8065;49.520;11.284;2023-11-18T13:28:48;98188.44;;;12.54;70.23